Time;durP1;ratioP1;P1;durP2;ratioP2;P2;SDS_P1;SDS_P2;PMS_P1;PMS_P2;Temp;Humidity;BMP_temperature;BMP_pressure;BME280_temperature;BME280_humidity;BME280_pressure;Samples;Min_cycle;Max_cycle;Signal;HPM_P1;HPM_P2
2021/09/06 00:01:08;;;;;;;132.87;62.80;;;14.30;99.90;;;;;;4889012;29;20998;-80
2021/09/06 00:03:36;;;;;;;106.57;73.03;;;14.20;99.90;;;;;;4890003;29;20855;-79
2021/09/06 00:06:05;;;;;;;23.13;21.33;;;14.20;99.90;;;;;;4885672;29;20458;-80
2021/09/06 00:08:34;;;;;;;15.50;13.90;;;14.20;99.90;;;;;;4885178;29;20493;-80
2021/09/06 00:11:05;;;;;;;51.40;46.03;;;14.20;99.90;;;;;;4885763;29;20674;-80
2021/09/06 00:13:34;;;;;;;62.13;55.63;;;14.30;99.90;;;;;;4886774;29;20473;-80
2021/09/06 00:16:02;;;;;;;66.13;57.37;;;14.20;99.90;;;;;;4870299;29;20494;-80
2021/09/06 00:18:34;;;;;;;77.70;56.50;;;14.10;99.90;;;;;;4869714;29;20454;-80
2021/09/06 00:21:03;;;;;;;63.37;56.63;;;14.10;99.90;;;;;;4869550;29;20475;-80
2021/09/06 00:23:32;;;;;;;86.90;55.40;;;14.00;99.90;;;;;;4874531;29;21014;-79
2021/09/06 00:26:02;;;;;;;103.37;53.43;;;14.00;99.90;;;;;;4905323;29;20509;-80
2021/09/06 00:28:31;;;;;;;113.87;61.57;;;14.00;99.90;;;;;;4888253;29;20509;-79
2021/09/06 00:31:00;;;;;;;93.60;58.70;;;13.90;99.90;;;;;;4888374;29;20449;-80
2021/09/06 00:33:29;;;;;;;69.63;55.80;;;13.90;99.90;;;;;;4883600;29;20486;-80
2021/09/06 00:35:58;;;;;;;77.93;64.07;;;13.90;99.90;;;;;;4882983;29;20469;-80
2021/09/06 00:38:26;;;;;;;15.75;14.20;;;13.80;99.90;;;;;;4886563;29;20456;-80
2021/09/06 00:40:54;;;;;;;41.40;38.30;;;13.90;99.90;;;;;;4905527;29;20189;-79
2021/09/06 00:43:24;;;;;;;17.90;16.20;;;13.90;99.90;;;;;;4887261;29;20891;-80
2021/09/06 00:45:52;;;;;;;46.47;41.57;;;13.90;99.90;;;;;;4888287;29;20216;-80
2021/09/06 00:48:20;;;;;;;45.27;40.90;;;13.80;99.90;;;;;;4888144;29;20513;-80
2021/09/06 00:50:49;;;;;;;50.27;45.63;;;13.80;99.90;;;;;;4887844;29;20553;-80
2021/09/06 00:53:18;;;;;;;58.50;52.60;;;13.70;99.90;;;;;;4888399;29;20485;-80
2021/09/06 00:55:47;;;;;;;61.33;43.07;;;13.70;99.90;;;;;;4904724;29;20520;-80
2021/09/06 00:58:17;;;;;;;57.97;51.93;;;13.60;99.90;;;;;;4888781;29;20525;-80
2021/09/06 01:00:47;;;;;;;79.23;54.10;;;13.60;99.90;;;;;;4888209;29;20461;-80
2021/09/06 01:03:18;;;;;;;59.50;53.77;;;13.60;99.90;;;;;;4888232;29;20473;-80
2021/09/06 01:05:48;;;;;;;60.80;51.47;;;13.50;99.90;;;;;;4878222;29;20435;-80
2021/09/06 01:08:38;;;;;;;66.27;60.17;;;13.50;99.90;;;;;;4876718;29;20485;-79
2021/09/06 01:11:33;;;;;;;66.53;51.87;;;13.50;99.90;;;;;;4901120;29;20457;-80
2021/09/06 01:14:24;;;;;;;15.20;13.80;;;13.40;99.90;;;;;;4904101;29;20456;-80
2021/09/06 01:16:54;;;;;;;45.63;41.57;;;13.50;99.90;;;;;;4887953;29;20212;-80
2021/09/06 01:19:24;;;;;;;16.23;14.77;;;13.40;99.90;;;;;;4887274;29;20831;-80
2021/09/06 01:21:55;;;;;;;42.37;38.67;;;13.50;99.90;;;;;;4888821;29;20196;-80
2021/09/06 01:24:42;;;;;;;58.73;53.27;;;13.40;99.90;;;;;;4903919;29;20628;-80
2021/09/06 01:27:19;;;;;;;46.33;42.70;;;13.40;99.90;;;;;;4885444;29;20465;-79
2021/09/06 01:29:47;;;;;;;52.10;47.10;;;13.30;99.90;;;;;;4885965;29;20423;-80
2021/09/06 01:32:19;;;;;;;54.57;47.50;;;13.20;99.90;;;;;;4885196;29;20456;-79
2021/09/06 01:34:50;;;;;;;52.57;48.17;;;13.20;99.90;;;;;;4885417;29;21036;-79
2021/09/06 01:37:18;;;;;;;58.93;53.20;;;13.20;99.90;;;;;;4885273;29;20464;-80
2021/09/06 01:39:53;;;;;;;49.27;44.33;;;13.20;99.90;;;;;;4902310;29;20946;-80
2021/09/06 01:42:24;;;;;;;48.93;45.93;;;13.20;99.90;;;;;;4885825;29;20504;-80
2021/09/06 01:44:55;;;;;;;60.47;54.07;;;13.10;99.90;;;;;;4885332;29;20485;-79
2021/09/06 01:47:29;;;;;;;48.63;44.57;;;13.10;99.90;;;;;;4885077;29;20453;-80
2021/09/06 01:50:05;;;;;;;35.20;31.67;;;13.00;99.90;;;;;;4886062;29;20633;-80
2021/09/06 01:52:50;;;;;;;42.13;39.07;;;13.10;99.90;;;;;;4888802;29;20449;-80
2021/09/06 01:55:18;;;;;;;42.63;38.60;;;13.00;99.90;;;;;;4888118;29;20480;-80
2021/09/06 01:57:56;;;;;;;58.27;47.27;;;13.00;99.90;;;;;;4889726;29;20651;-80
2021/09/06 02:00:25;;;;;;;52.30;47.07;;;12.90;99.90;;;;;;4889031;29;20479;-79
2021/09/06 02:02:53;;;;;;;45.27;41.17;;;12.90;99.90;;;;;;4888999;29;20460;-80
2021/09/06 02:05:32;;;;;;;22.20;20.43;;;12.90;99.90;;;;;;4889640;29;20897;-80
2021/09/06 02:08:00;;;;;;;49.73;45.77;;;12.90;99.90;;;;;;4888982;29;20481;-80
2021/09/06 02:10:29;;;;;;;45.87;42.77;;;12.80;99.90;;;;;;4888957;29;20512;-79
2021/09/06 02:13:01;;;;;;;51.17;45.07;;;12.80;99.90;;;;;;4889222;29;20469;-78
2021/09/06 02:15:30;;;;;;;58.13;53.90;;;12.70;99.90;;;;;;4889105;29;20465;-78
2021/09/06 02:17:58;;;;;;;50.03;46.23;;;12.80;99.90;;;;;;4889071;29;20457;-79
2021/09/06 02:20:30;;;;;;;52.80;47.80;;;12.70;99.90;;;;;;4888951;29;20464;-79
2021/09/06 02:22:58;;;;;;;52.40;47.90;;;12.70;99.90;;;;;;4889272;29;20512;-79
2021/09/06 02:25:26;;;;;;;43.83;40.50;;;12.70;99.90;;;;;;4888552;29;20449;-79
2021/09/06 02:27:55;;;;;;;14.00;12.80;;;12.60;99.90;;;;;;4888368;29;20538;-79
2021/09/06 02:30:24;;;;;;;47.67;43.47;;;12.70;99.90;;;;;;4888776;29;20206;-78
2021/09/06 02:32:53;;;;;;;17.65;16.27;;;12.60;99.90;;;;;;4888886;29;20814;-79
2021/09/06 02:35:24;;;;;;;45.50;42.20;;;12.60;99.90;;;;;;4906036;29;20280;-79
2021/09/06 02:37:53;;;;;;;48.77;45.20;;;12.60;99.90;;;;;;4888339;29;20549;-79
2021/09/06 02:40:22;;;;;;;48.93;44.87;;;12.60;99.90;;;;;;4888347;29;20457;-79
2021/09/06 02:42:50;;;;;;;46.70;43.07;;;12.50;99.90;;;;;;4888058;29;20467;-79
2021/09/06 02:45:19;;;;;;;60.53;54.90;;;12.50;99.90;;;;;;4888826;29;20559;-78
2021/09/06 02:47:54;;;;;;;49.83;46.10;;;12.50;99.90;;;;;;4885490;29;20447;-79
2021/09/06 02:50:23;;;;;;;55.63;51.03;;;12.40;99.90;;;;;;4885825;29;20502;-79
2021/09/06 02:52:55;;;;;;;53.37;49.07;;;12.40;99.90;;;;;;4885800;29;20992;-78
2021/09/06 02:55:24;;;;;;;48.17;44.07;;;12.40;99.90;;;;;;4885989;29;20469;-79
2021/09/06 02:57:52;;;;;;;17.40;16.13;;;12.40;99.90;;;;;;4870306;29;21019;-79
2021/09/06 03:00:21;;;;;;;50.77;45.70;;;12.30;99.90;;;;;;4890332;29;20465;-78
2021/09/06 03:02:51;;;;;;;47.07;43.03;;;12.30;99.90;;;;;;4888406;29;20453;-79
2021/09/06 03:05:21;;;;;;;55.37;49.83;;;12.30;99.90;;;;;;4888389;29;20433;-80
2021/09/06 03:07:53;;;;;;;41.43;37.33;;;12.30;99.90;;;;;;4888781;29;20460;-79
2021/09/06 03:10:23;;;;;;;51.23;47.90;;;12.20;99.90;;;;;;4888865;29;20476;-79
2021/09/06 03:12:52;;;;;;;51.17;47.33;;;12.20;99.90;;;;;;4888415;29;20465;-79
2021/09/06 03:15:20;;;;;;;52.93;48.50;;;12.20;99.90;;;;;;4888558;29;20477;-80
2021/09/06 03:17:53;;;;;;;49.27;45.17;;;12.20;99.90;;;;;;4904559;29;20452;-79
2021/09/06 03:20:42;;;;;;;44.07;39.47;;;12.10;99.90;;;;;;4888806;29;20445;-79
2021/09/06 03:23:13;;;;;;;42.77;39.87;;;12.10;99.90;;;;;;4887800;29;20555;-79
2021/09/06 03:25:43;;;;;;;46.10;42.67;;;12.10;99.90;;;;;;4887885;29;20513;-78
2021/09/06 03:28:12;;;;;;;43.03;39.57;;;12.10;99.90;;;;;;4888211;29;20471;-79
2021/09/06 03:30:44;;;;;;;46.43;42.30;;;12.10;99.90;;;;;;4887941;29;20473;-79
2021/09/06 03:33:13;;;;;;;44.93;41.30;;;12.00;99.90;;;;;;4887885;29;20482;-79
2021/09/06 03:35:48;;;;;;;39.00;36.30;;;12.00;99.90;;;;;;4888252;29;20461;-79
2021/09/06 03:38:17;;;;;;;40.43;37.10;;;12.00;99.90;;;;;;4888663;29;20532;-79
2021/09/06 03:40:46;;;;;;;47.93;44.03;;;12.00;99.90;;;;;;4887788;29;20529;-80
2021/09/06 03:43:16;;;;;;;44.70;40.90;;;12.00;99.90;;;;;;4887759;29;20548;-79
2021/09/06 03:45:45;;;;;;;13.15;11.95;;;11.90;99.90;;;;;;4886313;29;20516;-79
2021/09/06 03:48:14;;;;;;;36.97;34.40;;;12.00;99.90;;;;;;4883537;29;20671;-78
2021/09/06 03:50:45;;;;;;;14.32;13.02;;;12.00;99.90;;;;;;4887006;29;20455;-80
2021/09/06 03:53:15;;;;;;;31.27;29.37;;;12.00;99.90;;;;;;4887678;29;20224;-79
2021/09/06 03:55:43;;;;;;;41.00;37.80;;;12.00;99.90;;;;;;4887386;29;20547;-79
2021/09/06 03:58:12;;;;;;;44.53;40.63;;;11.90;99.90;;;;;;4874225;29;20924;-79
2021/09/06 04:00:41;;;;;;;54.47;47.23;;;11.90;99.90;;;;;;4868000;29;20477;-79
2021/09/06 04:03:13;;;;;;;48.93;45.53;;;11.90;99.90;;;;;;4882470;29;20469;-79
2021/09/06 04:05:43;;;;;;;48.50;44.63;;;11.90;99.90;;;;;;4886798;29;20461;-79
2021/09/06 04:08:13;;;;;;;45.73;42.33;;;11.80;99.90;;;;;;4886068;29;20456;-79
2021/09/06 04:10:42;;;;;;;49.37;44.93;;;11.80;99.90;;;;;;4886239;29;20491;-79
2021/09/06 04:13:11;;;;;;;51.57;47.87;;;11.80;99.90;;;;;;4886846;29;20554;-79
2021/09/06 04:15:39;;;;;;;43.30;40.00;;;11.80;99.90;;;;;;4887069;29;20506;-79
2021/09/06 04:18:07;;;;;;;50.63;45.33;;;11.80;99.90;;;;;;4885256;29;20509;-78
2021/09/06 04:20:35;;;;;;;292.37;87.17;;;11.70;99.90;;;;;;4885956;29;20453;-78
2021/09/06 04:23:04;;;;;;;78.53;53.23;;;11.80;99.90;;;;;;4886791;29;20833;-79
2021/09/06 04:25:34;;;;;;;24.33;21.45;;;11.70;99.90;;;;;;4885387;29;20506;-79
2021/09/06 04:28:03;;;;;;;25.27;22.87;;;11.80;99.90;;;;;;4885718;29;20301;-78
2021/09/06 04:30:33;;;;;;;24.67;21.63;;;11.80;99.90;;;;;;4886307;29;20456;-79
2021/09/06 04:33:04;;;;;;;30.03;27.30;;;11.90;99.90;;;;;;4886619;29;20215;-79
2021/09/06 04:35:32;;;;;;;31.13;28.33;;;11.80;99.90;;;;;;4886248;29;20467;-79
2021/09/06 04:38:00;;;;;;;39.17;36.00;;;11.80;99.90;;;;;;4886122;29;20468;-79
2021/09/06 04:40:29;;;;;;;28.60;26.10;;;11.80;99.90;;;;;;4886045;29;20547;-79
2021/09/06 04:42:59;;;;;;;25.13;22.43;;;11.80;99.90;;;;;;4885320;29;21064;-79
2021/09/06 04:45:28;;;;;;;166.37;61.90;;;11.80;99.90;;;;;;4902855;29;20460;-79
2021/09/06 04:47:56;;;;;;;25.83;23.73;;;11.80;99.90;;;;;;4885462;29;20509;-79
2021/09/06 04:50:25;;;;;;;26.93;23.50;;;11.80;99.90;;;;;;4885599;29;20473;-79
2021/09/06 04:52:55;;;;;;;42.27;38.13;;;11.70;99.90;;;;;;4885883;29;20488;-79
2021/09/06 04:55:23;;;;;;;49.10;35.27;;;11.70;99.90;;;;;;4885709;29;20473;-79
2021/09/06 04:57:51;;;;;;;94.53;47.40;;;11.70;99.90;;;;;;4886388;29;20460;-79
2021/09/06 05:00:22;;;;;;;43.20;39.90;;;11.70;99.90;;;;;;4879032;29;20461;-78
2021/09/06 05:02:52;;;;;;;153.27;57.43;;;11.70;99.90;;;;;;4877569;29;20971;-79
2021/09/06 05:05:22;;;;;;;18.05;16.15;;;11.70;99.90;;;;;;4884313;29;20470;-79
2021/09/06 05:07:55;;;;;;;54.30;49.20;;;11.70;99.90;;;;;;4886116;29;20208;-78
2021/09/06 05:10:24;;;;;;;21.98;19.95;;;11.70;99.90;;;;;;4884724;29;20494;-79
2021/09/06 05:12:52;;;;;;;31.70;29.27;;;11.70;99.90;;;;;;4884416;29;20456;-79
2021/09/06 05:15:25;;;;;;;64.53;59.43;;;11.70;99.90;;;;;;4884408;29;20959;-79
2021/09/06 05:17:55;;;;;;;50.00;46.63;;;11.70;99.90;;;;;;4885900;29;20545;-80
2021/09/06 05:20:24;;;;;;;228.27;68.97;;;11.70;99.90;;;;;;4887167;29;20444;-80
2021/09/06 05:22:53;;;;;;;124.77;36.03;;;11.70;99.90;;;;;;4885678;29;20509;-78
2021/09/06 05:25:21;;;;;;;190.17;39.60;;;11.70;99.90;;;;;;4883776;29;20497;-78
2021/09/06 05:27:49;;;;;;;193.63;54.83;;;11.70;99.90;;;;;;4881842;29;20441;-78
2021/09/06 05:30:18;;;;;;;308.60;75.97;;;11.70;99.90;;;;;;4881011;29;20567;-78
2021/09/06 05:32:48;;;;;;;286.23;73.90;;;11.70;99.90;;;;;;4881615;29;20457;-78
2021/09/06 05:35:16;;;;;;;163.97;51.70;;;11.70;99.90;;;;;;4881469;29;20982;-79
2021/09/06 05:37:46;;;;;;;196.00;35.40;;;11.70;99.90;;;;;;4881744;29;20449;-79
2021/09/06 05:40:18;;;;;;;95.77;38.70;;;11.70;99.90;;;;;;4881817;29;20955;-78
2021/09/06 05:42:46;;;;;;;293.07;63.23;;;11.70;99.90;;;;;;4882654;29;20450;-78
2021/09/06 05:45:14;;;;;;;43.03;25.33;;;11.80;99.90;;;;;;4898227;29;20535;-78
2021/09/06 05:47:44;;;;;;;31.43;29.10;;;11.80;99.90;;;;;;4881509;29;20463;-77
2021/09/06 05:50:17;;;;;;;166.87;49.03;;;11.80;99.90;;;;;;4881512;29;20479;-78
2021/09/06 05:53:06;;;;;;;298.13;83.87;;;11.80;99.90;;;;;;4898453;29;20520;-77
2021/09/06 05:55:34;;;;;;;66.13;59.93;;;11.90;99.90;;;;;;4881737;29;20978;-78
2021/09/06 05:58:02;;;;;;;206.57;82.57;;;11.90;99.90;;;;;;4881804;29;20461;-78
2021/09/06 06:00:30;;;;;;;75.90;67.87;;;11.90;99.90;;;;;;4881772;29;20954;-78
2021/09/06 06:02:59;;;;;;;323.00;73.80;;;12.00;99.90;;;;;;4886449;29;20465;-78
2021/09/06 06:05:29;;;;;;;117.60;105.40;;;12.00;99.90;;;;;;4887131;29;20492;-79
2021/09/06 06:08:00;;;;;;;193.70;153.30;;;12.00;99.90;;;;;;4887115;29;20445;-79
2021/09/06 06:10:33;;;;;;;60.87;57.17;;;12.10;99.90;;;;;;4887929;29;20500;-78
2021/09/06 06:13:01;;;;;;;73.30;68.07;;;12.10;99.90;;;;;;4887455;29;20453;-79
2021/09/06 06:15:29;;;;;;;74.43;69.30;;;12.20;99.90;;;;;;4887131;29;20512;-79
2021/09/06 06:17:58;;;;;;;146.57;113.07;;;12.30;99.90;;;;;;4886057;29;20881;-79
2021/09/06 06:20:27;;;;;;;141.97;112.27;;;12.30;99.90;;;;;;4886928;29;20449;-79
2021/09/06 06:23:17;;;;;;;55.23;51.53;;;12.40;99.90;;;;;;4874597;29;20468;-79
2021/09/06 06:26:02;;;;;;;39.13;36.47;;;12.50;99.90;;;;;;4887727;29;20537;-78
2021/09/06 06:28:32;;;;;;;413.70;257.47;;;12.70;99.90;;;;;;4887191;29;20460;-79
2021/09/06 06:31:03;;;;;;;161.83;154.70;;;13.00;99.90;;;;;;4885031;29;20552;-79
2021/09/06 06:33:31;;;;;;;188.57;180.20;;;13.20;99.90;;;;;;4882513;29;20496;-78
2021/09/06 06:36:05;;;;;;;230.33;218.83;;;13.30;99.90;;;;;;4883944;29;20457;-79
2021/09/06 06:38:36;;;;;;;233.23;222.47;;;13.50;99.90;;;;;;4885342;29;20540;-79
2021/09/06 06:41:05;;;;;;;229.23;219.37;;;13.70;99.90;;;;;;4904277;29;20967;-78
2021/09/06 06:43:47;;;;;;;226.50;216.37;;;13.90;99.90;;;;;;4889658;29;20474;-78
2021/09/06 06:46:17;;;;;;;256.63;245.07;;;14.20;99.90;;;;;;4889690;29;20600;-79
2021/09/06 06:48:48;;;;;;;308.00;293.60;;;14.30;99.90;;;;;;4888757;29;20511;-79
2021/09/06 06:51:22;;;;;;;360.53;339.10;;;14.50;99.90;;;;;;4890605;29;20471;-79
2021/09/06 06:53:52;;;;;;;345.30;327.53;;;14.70;99.90;;;;;;4888575;29;20450;-78
2021/09/06 06:56:25;;;;;;;396.53;375.17;;;14.90;99.90;;;;;;4888494;29;20488;-79
2021/09/06 06:58:59;;;;;;;458.20;429.47;;;15.10;99.90;;;;;;4889009;29;20427;-79
2021/09/06 07:01:33;;;;;;;445.10;421.00;;;15.30;99.90;;;;;;4887337;29;20442;-80
2021/09/06 07:04:03;;;;;;;644.83;574.47;;;15.50;99.90;;;;;;4888013;29;20458;-78
2021/09/06 07:06:35;;;;;;;354.67;339.05;;;15.60;99.90;;;;;;4886696;29;20467;-79
2021/09/06 07:09:05;;;;;;;825.23;690.03;;;15.70;99.90;;;;;;4886158;29;20261;-79
2021/09/06 07:11:35;;;;;;;1017.97;716.10;;;15.80;99.90;;;;;;4886709;29;20479;-79
2021/09/06 07:14:04;;;;;;;98.50;93.85;;;15.80;99.90;;;;;;4884382;29;20442;-78
2021/09/06 07:16:33;;;;;;;377.97;357.67;;;16.00;99.90;;;;;;4885268;29;20208;-78
2021/09/06 07:19:02;;;;;;;555.57;510.37;;;16.00;99.90;;;;;;4885665;29;20456;-79
2021/09/06 07:21:32;;;;;;;780.77;646.73;;;16.00;99.90;;;;;;4886142;29;20428;-79
2021/09/06 07:24:00;;;;;;;766.57;628.50;;;16.10;99.90;;;;;;4902956;29;20537;-78
2021/09/06 07:26:30;;;;;;;850.00;666.13;;;16.10;99.90;;;;;;4886028;29;20850;-79
2021/09/06 07:29:00;;;;;;;806.00;654.00;;;16.10;99.90;;;;;;4887096;29;20507;-79
2021/09/06 07:31:29;;;;;;;757.77;636.60;;;16.10;99.90;;;;;;4884486;29;20473;-79
2021/09/06 07:33:59;;;;;;;800.50;663.60;;;16.10;99.90;;;;;;4886108;29;20448;-79
2021/09/06 07:36:28;;;;;;;843.87;661.43;;;16.20;99.90;;;;;;4887730;29;20453;-79
2021/09/06 07:39:01;;;;;;;915.90;678.93;;;16.20;99.90;;;;;;4887103;29;20481;-79
2021/09/06 07:41:34;;;;;;;988.77;716.67;;;16.40;99.90;;;;;;4886730;29;20441;-80
2021/09/06 07:44:02;;;;;;;768.73;680.60;;;16.50;99.90;;;;;;4886722;29;20524;-79
2021/09/06 07:46:31;;;;;;;321.40;305.93;;;16.60;99.90;;;;;;4887291;29;20808;-79
2021/09/06 07:49:00;;;;;;;825.87;739.27;;;16.80;99.90;;;;;;4886889;29;20440;-79
2021/09/06 07:51:32;;;;;;;1246.90;843.23;;;17.00;99.90;;;;;;4886950;29;20459;-80
2021/09/06 07:54:02;;;;;;;1597.03;925.77;;;17.10;99.90;;;;;;4886419;29;20452;-80
2021/09/06 07:56:30;;;;;;;1484.77;926.43;;;17.30;99.90;;;;;;4885916;29;20428;-79
2021/09/06 07:59:00;;;;;;;1888.40;996.63;;;17.40;99.90;;;;;;4885607;29;20450;-78
2021/09/06 08:01:29;;;;;;;1999.90;969.50;;;17.60;99.90;;;;;;4886091;29;20440;-79
2021/09/06 08:03:58;;;;;;;1999.90;938.27;;;17.70;99.90;;;;;;4885367;29;20469;-82
2021/09/06 08:06:26;;;;;;;1999.90;979.07;;;17.80;99.90;;;;;;4885497;29;20460;-79
2021/09/06 08:08:55;;;;;;;1999.90;999.90;;;17.90;99.90;;;;;;4885357;29;20457;-78
2021/09/06 08:11:24;;;;;;;1999.90;999.90;;;18.10;99.90;;;;;;4885562;29;20845;-79
2021/09/06 08:13:57;;;;;;;1999.90;999.90;;;18.20;99.90;;;;;;4885438;29;20481;-79
2021/09/06 08:16:28;;;;;;;1999.90;999.90;;;18.30;99.90;;;;;;4885564;29;20552;-79
2021/09/06 08:18:56;;;;;;;1999.90;999.90;;;18.40;99.90;;;;;;4885439;29;20446;-78
2021/09/06 08:21:25;;;;;;;1999.90;999.90;;;18.60;99.90;;;;;;4885618;29;20460;-79
2021/09/06 08:23:57;;;;;;;1999.90;999.90;;;18.70;99.90;;;;;;4885616;29;20481;-79
2021/09/06 08:26:28;;;;;;;776.85;725.08;;;18.90;99.90;;;;;;4884578;29;20472;-79
2021/09/06 08:28:57;;;;;;;1999.90;999.90;;;19.00;99.90;;;;;;4885155;29;20205;-79
2021/09/06 08:31:29;;;;;;;1999.90;999.90;;;19.20;99.90;;;;;;4884937;29;20460;-78
2021/09/06 08:33:59;;;;;;;1999.90;999.90;;;19.30;99.90;;;;;;4885273;29;20229;-80
2021/09/06 08:36:28;;;;;;;1999.90;999.90;;;19.30;99.90;;;;;;4885033;29;20461;-79
2021/09/06 08:38:56;;;;;;;1999.90;999.90;;;19.50;99.90;;;;;;4884888;29;20450;-78
2021/09/06 08:41:25;;;;;;;1999.90;999.90;;;19.50;99.90;;;;;;4884760;29;20475;-79
2021/09/06 08:43:53;;;;;;;1999.90;999.90;;;19.60;99.90;;;;;;4884924;29;20469;-79
2021/09/06 08:46:25;;;;;;;1999.90;999.90;;;19.60;99.90;;;;;;4885641;29;20461;-77
2021/09/06 08:48:56;;;;;;;1999.90;999.90;;;19.60;99.90;;;;;;4885217;29;20533;-78
2021/09/06 08:51:25;;;;;;;1999.90;999.90;;;19.60;99.90;;;;;;4884926;29;20456;-79
2021/09/06 08:53:56;;;;;;;1999.90;999.90;;;19.70;99.90;;;;;;4884145;29;20484;-78
2021/09/06 08:56:27;;;;;;;1999.90;999.90;;;19.80;99.90;;;;;;4884412;29;21001;-79
2021/09/06 08:59:06;;;;;;;1999.90;999.90;;;19.90;99.90;;;;;;4883960;29;20448;-78
2021/09/06 09:01:40;;;;;;;1999.90;999.90;;;20.00;99.90;;;;;;4884105;29;20464;-78
2021/09/06 09:04:30;;;;;;;1999.90;999.90;;;20.10;99.90;;;;;;4899384;29;20458;-78
2021/09/06 09:07:19;;;;;;;1999.90;941.60;;;20.30;99.90;;;;;;4901947;29;20196;-79
2021/09/06 09:10:09;;;;;;;1999.90;999.90;;;20.40;99.90;;;;;;4901104;29;20433;-78
2021/09/06 09:12:52;;;;;;;1999.90;999.90;;;20.40;99.90;;;;;;4884981;29;20879;-79
2021/09/06 09:15:39;;;;;;;1999.90;988.60;;;20.50;99.90;;;;;;4883528;29;20451;-78
2021/09/06 09:18:24;;;;;;;1999.90;965.63;;;20.60;99.90;;;;;;4883269;29;20824;-79
2021/09/06 09:21:26;;;;;;;1999.90;978.53;;;20.60;99.90;;;;;;4899223;29;20954;-78
2021/09/06 09:24:21;;;;;;;1999.90;979.17;;;20.70;99.90;;;;;;4882505;29;20549;-78
2021/09/06 09:27:11;;;;;;;1999.90;999.90;;;20.80;99.90;;;;;;4898731;29;20560;-78
2021/09/06 09:29:50;;;;;;;1999.90;730.60;;;20.80;99.90;;;;;;4882994;29;20490;-78
2021/09/06 09:32:37;;;;;;;1999.90;780.93;;;20.90;99.90;;;;;;4883030;29;20466;-78
2021/09/06 09:35:31;;;;;;;1999.90;425.17;;;21.00;99.90;;;;;;4898372;29;20449;-78
2021/09/06 09:38:03;;;;;;;1999.90;936.78;;;21.00;99.90;;;;;;4899378;29;20467;-78
2021/09/06 09:40:35;;;;;;;1999.90;857.57;;;21.00;99.90;;;;;;4882651;29;20576;-79
2021/09/06 09:43:06;;;;;;;1999.90;541.77;;;21.00;99.90;;;;;;4882916;29;20501;-79
2021/09/06 09:45:36;;;;;;;1999.90;999.90;;;21.00;99.90;;;;;;4881007;29;20460;-78
2021/09/06 09:48:30;;;;;;;1999.90;999.90;;;21.10;99.90;;;;;;4882278;29;20201;-78
2021/09/06 09:51:00;;;;;;;1999.90;711.50;;;21.20;99.90;;;;;;4882592;29;20468;-78
2021/09/06 09:53:33;;;;;;;1999.90;405.00;;;21.20;99.90;;;;;;4882878;29;20521;-79
2021/09/06 09:56:02;;;;;;;1999.90;199.47;;;21.20;99.90;;;;;;4882919;29;20969;-78
2021/09/06 09:58:30;;;;;;;1999.90;483.43;;;21.20;99.90;;;;;;4882740;29;20472;-78
2021/09/06 10:01:03;;;;;;;1999.90;489.50;;;21.10;99.90;;;;;;4882591;29;20457;-79
2021/09/06 10:03:34;;;;;;;1999.90;581.83;;;21.10;99.90;;;;;;4899935;29;20974;-79
2021/09/06 10:06:03;;;;;;;1999.90;426.70;;;21.20;99.90;;;;;;4883204;29;20457;-79
2021/09/06 10:08:33;;;;;;;1999.90;177.77;;;21.20;99.90;;;;;;4899979;29;20867;-79
2021/09/06 10:11:12;;;;;;;1999.90;763.17;;;21.30;99.90;;;;;;4883538;29;20442;-78
2021/09/06 10:13:43;;;;;;;1999.90;999.90;;;21.30;99.90;;;;;;4899476;29;20519;-79
2021/09/06 10:16:13;;;;;;;1999.90;999.90;;;21.50;99.90;;;;;;4885956;29;20193;-79
2021/09/06 10:18:42;;;;;;;1999.90;999.90;;;21.60;99.90;;;;;;4887380;29;20513;-79
2021/09/06 10:21:13;;;;;;;1999.90;688.77;;;21.60;99.90;;;;;;4887445;29;20449;-79
2021/09/06 10:23:48;;;;;;;1999.90;999.90;;;21.60;99.90;;;;;;4888491;29;20505;-79
2021/09/06 10:26:16;;;;;;;1999.90;999.90;;;21.70;99.90;;;;;;4887142;29;20501;-79
2021/09/06 10:28:44;;;;;;;1999.90;999.90;;;21.70;99.90;;;;;;4887569;29;20830;-79
2021/09/06 10:31:19;;;;;;;1551.70;678.33;;;21.70;99.90;;;;;;4886659;29;20441;-78
2021/09/06 10:33:58;;;;;;;1999.90;999.90;;;21.70;99.90;;;;;;4886653;29;20488;-79
2021/09/06 10:36:27;;;;;;;1999.90;999.90;;;21.70;99.90;;;;;;4904415;29;20858;-79
2021/09/06 10:39:05;;;;;;;1999.90;999.90;;;21.70;99.90;;;;;;4903687;29;20531;-79
2021/09/06 10:41:45;;;;;;;1999.90;999.90;;;21.70;99.90;;;;;;4887025;29;20453;-79
2021/09/06 10:44:15;;;;;;;1999.90;999.90;;;21.70;99.90;;;;;;4903569;29;20966;-79
2021/09/06 10:46:53;;;;;;;1999.90;712.20;;;21.60;99.90;;;;;;4902484;29;20439;-79
2021/09/06 10:49:25;;;;;;;1999.90;999.90;;;21.70;99.90;;;;;;4886862;29;20185;-79
2021/09/06 10:51:56;;;;;;;1999.90;999.90;;;21.70;99.90;;;;;;4886189;29;20503;-78
2021/09/06 10:54:25;;;;;;;1999.90;999.90;;;21.70;99.90;;;;;;4886957;29;20235;-79
2021/09/06 10:56:54;;;;;;;1999.90;999.90;;;21.60;99.90;;;;;;4886757;29;20446;-79
2021/09/06 10:59:26;;;;;;;1999.90;999.90;;;21.60;99.90;;;;;;4886755;29;20951;-79
2021/09/06 11:01:57;;;;;;;1999.90;999.90;;;21.60;99.90;;;;;;4886965;29;20450;-79
2021/09/06 11:04:28;;;;;;;1999.90;999.90;;;21.50;99.90;;;;;;4886737;29;20529;-79
2021/09/06 11:07:02;;;;;;;1999.90;999.90;;;21.50;99.90;;;;;;4903729;29;20435;-79
2021/09/06 11:09:34;;;;;;;1999.90;999.90;;;21.50;99.90;;;;;;4886697;29;20449;-79
2021/09/06 11:12:05;;;;;;;1999.90;999.90;;;21.50;99.90;;;;;;4886980;29;20452;-79
2021/09/06 11:14:37;;;;;;;1999.90;999.90;;;21.50;99.90;;;;;;4887098;29;20572;-79
2021/09/06 11:17:20;;;;;;;1999.90;999.90;;;21.50;99.90;;;;;;4886570;29;20441;-79
2021/09/06 11:19:49;;;;;;;1999.90;605.75;;;21.50;99.90;;;;;;4885426;29;20958;-79
2021/09/06 11:22:22;;;;;;;1999.90;999.90;;;21.60;99.90;;;;;;4886333;29;20205;-79
2021/09/06 11:24:57;;;;;;;1999.90;999.90;;;21.60;99.90;;;;;;4885736;29;20460;-79
2021/09/06 11:27:31;;;;;;;1999.90;999.90;;;21.60;99.90;;;;;;4885492;29;20283;-79
2021/09/06 11:30:00;;;;;;;1999.90;999.90;;;21.60;99.90;;;;;;4886756;29;20452;-79
2021/09/06 11:32:30;;;;;;;1999.90;999.90;;;21.60;99.90;;;;;;4886746;29;20971;-79
2021/09/06 11:35:05;;;;;;;1999.90;999.90;;;21.60;99.90;;;;;;4886247;29;20476;-79
2021/09/06 11:37:34;;;;;;;1999.90;999.90;;;21.60;99.90;;;;;;4886132;29;20457;-78
2021/09/06 11:40:05;;;;;;;1999.90;999.90;;;21.60;99.90;;;;;;4885868;29;20469;-79
2021/09/06 11:42:35;;;;;;;1574.97;679.33;;;21.60;99.90;;;;;;4886241;29;20461;-79
2021/09/06 11:45:04;;;;;;;1999.90;999.90;;;21.60;99.90;;;;;;4886083;29;20551;-79
2021/09/06 11:47:33;;;;;;;1504.03;678.03;;;21.70;99.90;;;;;;4885940;29;20477;-79
2021/09/06 11:50:01;;;;;;;1999.90;165.15;;;21.70;99.90;;;;;;4885781;29;20506;-79
2021/09/06 11:52:33;;;;;;;1999.90;999.90;;;21.80;99.90;;;;;;4886499;29;20279;-78
2021/09/06 11:55:03;;;;;;;1999.90;999.90;;;21.80;99.90;;;;;;4902307;29;20854;-79
2021/09/06 11:57:33;;;;;;;702.45;276.00;;;21.80;99.80;;;;;;4884615;29;20499;-78
2021/09/06 12:00:03;;;;;;;1999.90;999.90;;;21.90;98.70;;;;;;4885714;29;20691;-79
2021/09/06 12:02:49;;;;;;;1999.90;999.90;;;22.00;98.80;;;;;;4902220;29;20833;-78
2021/09/06 12:05:18;;;;;;;1999.90;999.90;;;22.00;98.80;;;;;;4885070;29;20982;-79
2021/09/06 12:07:48;;;;;;;1999.90;999.90;;;22.00;98.80;;;;;;4902237;29;20449;-79
2021/09/06 12:10:35;;;;;;;1999.90;999.90;;;21.90;98.70;;;;;;4885031;29;20556;-79
2021/09/06 12:13:06;;;;;;;1999.90;999.90;;;21.90;98.60;;;;;;4884633;29;20448;-79
2021/09/06 12:15:37;;;;;;;1999.90;999.90;;;22.00;98.50;;;;;;4884456;29;20568;-78
2021/09/06 12:18:11;;;;;;;1999.90;999.90;;;22.00;98.10;;;;;;4884355;29;20493;-78
2021/09/06 12:20:41;;;;;;;1999.90;999.90;;;22.00;97.70;;;;;;4884765;29;20825;-78
2021/09/06 12:23:10;;;;;;;1999.90;999.90;;;22.10;97.50;;;;;;4899876;29;20460;-78
2021/09/06 12:25:42;;;;;;;1999.90;999.90;;;22.20;96.10;;;;;;4884144;29;20540;-78
2021/09/06 12:28:12;;;;;;;1999.90;999.90;;;22.30;96.40;;;;;;4884582;29;20792;-79
2021/09/06 12:30:41;;;;;;;1999.90;999.90;;;22.30;96.60;;;;;;4884262;29;20454;-78
2021/09/06 12:33:11;;;;;;;1999.90;999.90;;;22.30;96.70;;;;;;4884596;29;20464;-78
2021/09/06 12:35:39;;;;;;;1999.90;999.90;;;22.30;96.70;;;;;;4883924;29;21038;-78